Liberal Mid-America Regional Airport
KLBL : rendu visible

Aérodrome :











RETROUVEZ-NOUS SUR...

 
LOGIN :

S'inscrire | Disclaimer

   EN    FR    IT 

 









Légende :    VFR   VFR Marginal   IFR   IFR Intensif   IFR Très Intensif
Visi : 
Plafond : 
>= 8 km
>= 3000ft
5 à 8 km
1000 à 3000 ft
1500m à 5 km
500 à 1000 ft
800 à 1500m
200 à 500 ft
< 800m
< 200 ft
Symboles :   Orages  Brouillard  Fortes neiges  Fortes précipitations  Vent > 20 kt







- Altitude de l'aérodrome : 2885 ft
- Code IATA : LBL


KLBL - Liberal Mid-America Regional

DERNIER METAR :
  • 210556Z AUTO 19016KT 10SM CLR 19/07 A2971 RMK AO2 SLP031 T01890067 10300 20189 403110050 50006

METARs EXPIRÉS :
  • 210456Z AUTO 19017KT 10SM CLR 19/07 A2972 RMK AO2 PK WND 18027/0409 SLP034 T01940072
  • 210356Z AUTO 18020KT 10SM CLR 22/07 A2971 RMK AO2 PK WND 18030/0340 SLP031 T02170067

TAF KLBL
Valide du 21 à 06h jusqu'au 22 à 06h UTC


210520Z 2106/2206 18018G28KT P6SM SCT250 WS020/20055KT
FM210900 21012KT P6SM SCT250
FM211500 23015G25KT P6SM SCT250
FM220000 24012KT P6SM BKN200
FM220300 36013G23KT P6SM BKN150
FIR KZKC / Amérique du Nord



MET'MAP, la Météo Aéronautique d'un coup d'oeil ! - Copyright ORBIFLY Décembre 2007 - Disclaimer

ORBIFLY MET'MAP TEAM :

Programmation & Développement : Alexandra Zaïnal
Conception & Développement : Baudouin d'Aumeries
Co-Programmation & Développement : Marc-Olivier Méhu
Soutien technique & logistique : Manuel Goepfert

Contact : metmap@orbifly.com




SOURCES & CREDITS :

   NOAA       Earth
Advisory